• Join FlightAware (Why Join?)
  • Login
  • US Flag 
10:56PM EDT


 

Airport Tracker/Info


-or-


 

Live Flight TrackerFlight Track Log ✈ N23123 ✈ 15-Jan-2014 ✈ KBGM - KITH

Flight Track Log - Related Links

Times and Time Zones

All times are in EST time to prevent confusion due to time zone crossing. See the N23123 flight status page for this flight to view local times or setup timezone preferences in your user account.

Time Position Orientation Groundspeed Altitude Reporting Facility
EST Latitude Longitude Course Direction KTS MPH feet Rate Location/Type
10:21AM 42.2715 -76.0857 284° West  Level Estimated
10:22AM 42.2986 -76.1160 320° Northwest  Level FlightAware Approximate
10:23AM 42.3257 -76.1462 320° Northwest  Level FlightAware Approximate
10:24AM 42.3528 -76.1765 320° Northwest  Level FlightAware Approximate
10:25AM 42.3799 -76.2068 320° Northwest  Level FlightAware Approximate
10:26AM 42.4070 -76.2371 320° Northwest  Level FlightAware Approximate
10:27AM 42.4231 -76.2794 294° West  Level Estimated
10:28AM 42.4393 -76.3217 285° West  Level Estimated
10:29AM 42.4543 -76.3647 295° West  Level FlightAware Approximate
10:30AM 42.4709 -76.4067 294° West  Level Estimated
10:31AM 42.4833 -76.4500 294° West  Level FlightAware Approximate
10:32AM 42.4914 -76.4587 294° West  Level Estimated
10:33AM 42.4914 -76.4587 294° West  Level Estimated
10:34AM 42.4914 -76.4587 294° West  Level Estimated
10:35AM 42.4914 -76.4587 294° West  Level Estimated
10:36AM 42.4914 -76.4587 294° West  Level Estimated
10:37AM 42.4914 -76.4587 294° West  Level Estimated
10:38AM 42.4914 -76.4587 294° West  Level Estimated
10:39AM 42.4914 -76.4587 294° West  Level Estimated
10:40AM 42.4914 -76.4587 294° West  Level Estimated
10:41AM 42.4914 -76.4587 294° West  Level Estimated
10:42AM 42.4914 -76.4587 294° West  Level Estimated
10:43AM 42.4914 -76.4587 294° West  Level Estimated
10:44AM 42.4914 -76.4587 294° West  Level Estimated
10:45AM 42.4914 -76.4587 294° West  Level Estimated
10:46AM 42.4914 -76.4587 294° West  Level Estimated
10:47AM 42.4914 -76.4587 294° West  Level Estimated
10:48AM 42.4914 -76.4587 294° West  Level Estimated
10:49AM 42.4914 -76.4587 294° West  Level Estimated